Time;durP1;ratioP1;P1;durP2;ratioP2;P2;SDS_P1;SDS_P2;PMS_P1;PMS_P2;Temp;Humidity;BMP_temperature;BMP_pressure;BME280_temperature;BME280_humidity;BME280_pressure;Samples;Min_cycle;Max_cycle;Signal;HPM_P1;HPM_P2
2021/09/16 00:00:26;;;;;;;4.87;2.80;;;17.70;99.90;;;;;;5088660;28;20184;-40
2021/09/16 00:02:51;;;;;;;3.80;2.53;;;17.70;99.90;;;;;;5088410;28;20196;-40
2021/09/16 00:05:18;;;;;;;7.20;2.40;;;17.60;99.90;;;;;;5089117;28;20276;-42
2021/09/16 00:07:44;;;;;;;4.93;2.20;;;17.60;99.90;;;;;;5084666;28;20197;-39
2021/09/16 00:10:11;;;;;;;3.73;2.20;;;17.60;99.90;;;;;;5081077;28;20744;-38
2021/09/16 00:12:37;;;;;;;2.63;2.07;;;17.50;99.90;;;;;;5088220;28;20794;-42
2021/09/16 00:15:04;;;;;;;3.07;1.80;;;17.50;99.90;;;;;;5088702;28;20433;-38
2021/09/16 00:17:29;;;;;;;4.03;1.73;;;17.50;99.90;;;;;;5088342;28;20263;-44
2021/09/16 00:19:55;;;;;;;2.73;1.40;;;17.50;99.90;;;;;;5087954;28;20647;-41
2021/09/16 00:22:20;;;;;;;2.40;1.73;;;17.40;99.90;;;;;;5085497;28;20184;-38
2021/09/16 00:24:46;;;;;;;3.10;1.67;;;17.40;99.90;;;;;;5081810;28;20187;-38
2021/09/16 00:27:12;;;;;;;5.57;1.70;;;17.30;99.90;;;;;;5086728;28;20279;-40
2021/09/16 00:29:37;;;;;;;3.30;1.80;;;17.30;99.90;;;;;;5088250;28;20686;-42
2021/09/16 00:32:03;;;;;;;2.33;1.47;;;17.30;99.90;;;;;;5088229;28;20193;-40
2021/09/16 00:34:29;;;;;;;4.30;1.70;;;17.20;99.90;;;;;;5088428;28;20193;-38
2021/09/16 00:36:55;;;;;;;4.10;1.30;;;17.30;99.90;;;;;;5088533;28;20434;-41
2021/09/16 00:39:21;;;;;;;2.33;1.30;;;17.20;99.90;;;;;;5077857;28;20192;-42
2021/09/16 00:41:46;;;;;;;7.70;1.60;;;17.20;99.90;;;;;;5088228;28;20184;-39
2021/09/16 00:44:12;;;;;;;3.90;1.60;;;17.10;99.90;;;;;;5088117;28;20970;-38
2021/09/16 00:46:37;;;;;;;2.97;1.50;;;17.10;99.90;;;;;;5088090;28;20345;-40
2021/09/16 00:49:05;;;;;;;3.73;1.30;;;17.10;99.90;;;;;;5087952;28;20521;-39
2021/09/16 00:51:31;;;;;;;1.70;1.50;;;17.10;99.90;;;;;;5088194;28;20188;-38
2021/09/16 00:53:58;;;;;;;2.27;1.40;;;17.10;99.90;;;;;;5078987;28;20428;-39
2021/09/16 00:56:25;;;;;;;1.43;1.20;;;17.10;99.90;;;;;;5083738;28;20950;-39
2021/09/16 00:58:53;;;;;;;2.87;1.40;;;17.00;99.90;;;;;;5087560;28;20916;-38
2021/09/16 01:01:18;;;;;;;4.73;1.83;;;17.00;99.90;;;;;;5087716;28;20426;-39
2021/09/16 01:03:45;;;;;;;1.60;1.33;;;17.00;99.90;;;;;;5087550;28;20427;-39
2021/09/16 01:06:11;;;;;;;2.80;1.37;;;17.00;99.90;;;;;;5088216;28;20890;-41
2021/09/16 01:08:37;;;;;;;2.93;1.60;;;17.00;99.90;;;;;;5079352;28;20458;-40
2021/09/16 01:11:03;;;;;;;4.43;1.80;;;17.00;99.90;;;;;;5083660;28;20423;-39
2021/09/16 01:13:29;;;;;;;3.77;1.73;;;17.00;99.90;;;;;;5087545;28;20426;-39
2021/09/16 01:15:57;;;;;;;2.97;2.43;;;17.00;99.90;;;;;;5087779;28;20309;-42
2021/09/16 01:18:24;;;;;;;2.80;2.17;;;17.00;99.90;;;;;;5087911;28;20184;-40
2021/09/16 01:20:49;;;;;;;2.67;2.27;;;17.00;99.90;;;;;;5086820;28;20457;-39
2021/09/16 01:23:15;;;;;;;2.13;1.93;;;17.00;99.90;;;;;;5082898;28;20461;-39
2021/09/16 01:25:41;;;;;;;3.73;2.30;;;16.90;99.90;;;;;;5076828;28;20195;-40
2021/09/16 01:28:07;;;;;;;3.73;3.17;;;16.90;99.90;;;;;;5086861;28;20230;-39
2021/09/16 01:30:33;;;;;;;4.73;2.90;;;16.90;99.90;;;;;;5087015;28;20719;-42
2021/09/16 01:32:59;;;;;;;3.10;2.80;;;16.90;99.90;;;;;;5076785;28;20193;-39
2021/09/16 01:35:26;;;;;;;3.40;3.10;;;16.90;99.90;;;;;;5084406;28;20414;-39
2021/09/16 01:37:52;;;;;;;2.60;2.40;;;16.80;99.90;;;;;;5086493;28;20781;-39
2021/09/16 01:40:17;;;;;;;2.87;2.67;;;16.80;99.90;;;;;;5075768;28;20925;-38
2021/09/16 01:42:45;;;;;;;3.30;2.70;;;16.80;99.90;;;;;;5086756;28;20600;-39
2021/09/16 01:45:17;;;;;;;2.50;2.30;;;16.80;99.90;;;;;;5087054;28;20189;-40
2021/09/16 01:47:44;;;;;;;2.50;1.83;;;16.90;99.90;;;;;;5086980;28;20517;-38
2021/09/16 01:50:11;;;;;;;3.50;1.90;;;16.80;99.90;;;;;;5086461;28;20566;-40
2021/09/16 01:52:37;;;;;;;3.70;2.10;;;16.80;99.90;;;;;;5086938;28;20429;-40
2021/09/16 01:55:03;;;;;;;4.47;2.00;;;16.80;99.90;;;;;;5076325;28;20419;-38
2021/09/16 01:57:29;;;;;;;2.70;2.03;;;16.80;99.90;;;;;;5082324;28;20476;-39
2021/09/16 01:59:55;;;;;;;2.00;1.90;;;16.70;99.90;;;;;;5086510;28;20928;-38
2021/09/16 02:02:20;;;;;;;3.20;2.03;;;16.70;99.90;;;;;;5086846;28;20546;-38
2021/09/16 02:04:46;;;;;;;4.03;2.30;;;16.70;99.90;;;;;;5086592;28;20192;-39
2021/09/16 02:07:12;;;;;;;1.80;1.70;;;16.70;99.90;;;;;;5086765;28;20539;-39
2021/09/16 02:09:37;;;;;;;2.83;2.20;;;16.70;99.90;;;;;;5079797;28;20216;-39
2021/09/16 02:12:04;;;;;;;3.47;1.93;;;16.70;99.90;;;;;;5086515;28;20265;-39
2021/09/16 02:14:29;;;;;;;2.43;1.90;;;16.70;99.90;;;;;;5084454;28;20709;-39
2021/09/16 02:16:55;;;;;;;3.00;1.70;;;16.70;99.90;;;;;;5086722;28;20410;-40
2021/09/16 02:19:20;;;;;;;1.90;1.47;;;16.70;99.90;;;;;;5085508;28;20198;-42
2021/09/16 02:21:46;;;;;;;3.00;1.40;;;16.60;99.90;;;;;;5086663;28;20356;-43
2021/09/16 02:24:12;;;;;;;2.97;1.60;;;16.60;99.90;;;;;;5080945;28;20185;-39
2021/09/16 02:26:37;;;;;;;3.83;1.50;;;16.60;99.90;;;;;;5082019;28;20202;-40
2021/09/16 02:29:03;;;;;;;2.63;1.40;;;16.60;99.90;;;;;;5085343;28;20219;-38
2021/09/16 02:31:29;;;;;;;3.00;1.63;;;16.70;99.90;;;;;;5086249;28;20663;-40
2021/09/16 02:33:54;;;;;;;2.50;1.73;;;16.70;99.90;;;;;;5072601;28;20196;-39
2021/09/16 02:36:20;;;;;;;2.80;1.93;;;16.70;99.90;;;;;;5086726;28;20303;-41
2021/09/16 02:38:47;;;;;;;2.97;2.47;;;16.60;99.90;;;;;;5082361;28;20275;-38
2021/09/16 02:41:13;;;;;;;3.53;2.00;;;16.60;99.90;;;;;;5078900;28;20183;-39
2021/09/16 02:43:38;;;;;;;2.60;1.87;;;16.60;99.90;;;;;;5086082;28;20438;-39
2021/09/16 02:46:04;;;;;;;2.57;2.37;;;16.60;99.90;;;;;;5086191;28;20430;-40
2021/09/16 02:48:30;;;;;;;6.50;1.80;;;16.60;99.90;;;;;;5085976;28;20191;-42
2021/09/16 02:50:55;;;;;;;3.10;2.23;;;16.60;99.90;;;;;;5085238;28;20275;-40
2021/09/16 02:53:21;;;;;;;3.20;1.70;;;16.50;99.90;;;;;;5085427;28;20192;-38
2021/09/16 02:55:47;;;;;;;3.30;2.00;;;16.50;99.90;;;;;;5077230;28;20192;-38
2021/09/16 02:58:12;;;;;;;5.00;2.33;;;16.60;99.90;;;;;;5085773;28;20185;-39
2021/09/16 03:00:38;;;;;;;2.83;1.87;;;16.50;99.90;;;;;;5085016;28;20663;-40
2021/09/16 03:03:04;;;;;;;3.87;1.73;;;16.40;99.90;;;;;;5085943;28;20234;-41
2021/09/16 03:05:30;;;;;;;3.10;1.60;;;16.40;99.90;;;;;;5085812;28;20415;-39
2021/09/16 03:07:55;;;;;;;2.77;1.80;;;16.30;99.90;;;;;;5084488;28;20315;-38
2021/09/16 03:10:21;;;;;;;4.37;1.40;;;16.30;99.90;;;;;;5069521;28;20212;-39
2021/09/16 03:12:47;;;;;;;3.33;1.70;;;16.30;99.90;;;;;;5082154;28;20187;-39
2021/09/16 03:15:12;;;;;;;2.93;2.00;;;16.30;99.90;;;;;;5085177;28;20249;-38
2021/09/16 03:17:38;;;;;;;3.20;1.70;;;16.30;99.90;;;;;;5085677;28;20188;-38
2021/09/16 03:20:05;;;;;;;3.77;1.57;;;16.30;99.90;;;;;;5085065;28;20192;-39
2021/09/16 03:22:30;;;;;;;2.70;1.43;;;16.30;99.90;;;;;;5085373;28;20282;-39
2021/09/16 03:24:56;;;;;;;2.37;1.43;;;16.30;99.90;;;;;;5076384;28;20882;-38
2021/09/16 03:27:21;;;;;;;3.47;1.67;;;16.30;99.90;;;;;;5086406;28;20288;-38
2021/09/16 03:29:48;;;;;;;2.53;1.87;;;16.30;99.90;;;;;;5088956;28;20307;-40
2021/09/16 03:32:14;;;;;;;3.73;2.13;;;16.30;99.90;;;;;;5085233;28;20189;-40
2021/09/16 03:34:39;;;;;;;3.47;1.37;;;16.20;99.90;;;;;;5090082;28;20842;-38
2021/09/16 03:37:05;;;;;;;3.57;1.40;;;16.10;99.90;;;;;;5089335;28;20796;-38
2021/09/16 03:39:30;;;;;;;3.30;1.37;;;16.10;99.90;;;;;;5081637;28;20609;-40
2021/09/16 03:41:56;;;;;;;5.90;2.03;;;16.10;99.90;;;;;;5088356;28;20597;-39
2021/09/16 03:44:22;;;;;;;1.87;1.10;;;16.00;99.90;;;;;;5089445;28;20226;-39
2021/09/16 03:46:47;;;;;;;9.27;1.93;;;16.10;99.90;;;;;;5089263;28;20188;-38
2021/09/16 03:49:13;;;;;;;2.70;1.20;;;16.00;99.90;;;;;;5088575;28;20307;-39
2021/09/16 03:51:38;;;;;;;3.03;1.30;;;16.00;99.90;;;;;;5089372;28;20189;-39
2021/09/16 03:54:04;;;;;;;3.60;1.30;;;15.90;99.90;;;;;;5086405;28;20222;-41
2021/09/16 03:56:30;;;;;;;4.67;1.40;;;16.00;99.90;;;;;;5080271;28;20271;-38
2021/09/16 03:58:56;;;;;;;3.53;1.90;;;16.00;99.90;;;;;;5088685;28;20265;-38
2021/09/16 04:01:21;;;;;;;2.90;1.53;;;15.90;99.90;;;;;;5089117;28;20674;-40
2021/09/16 04:03:47;;;;;;;3.03;1.30;;;15.90;99.90;;;;;;5088972;28;20223;-45
2021/09/16 04:06:13;;;;;;;2.17;1.30;;;15.90;99.90;;;;;;5088969;28;20357;-40
2021/09/16 04:08:38;;;;;;;2.77;1.70;;;15.90;99.90;;;;;;5088450;28;20222;-38
2021/09/16 04:11:04;;;;;;;2.93;1.47;;;15.90;99.90;;;;;;5079420;28;21240;-41
2021/09/16 04:13:30;;;;;;;4.47;1.83;;;15.90;99.90;;;;;;5088572;28;20222;-39
2021/09/16 04:15:56;;;;;;;3.57;1.57;;;15.80;99.90;;;;;;5089026;28;20464;-39
2021/09/16 04:18:21;;;;;;;4.07;2.00;;;15.80;99.90;;;;;;5088534;28;20664;-38
2021/09/16 04:20:47;;;;;;;4.87;1.80;;;15.70;99.90;;;;;;5087156;28;20232;-40
2021/09/16 04:23:12;;;;;;;3.03;1.80;;;15.70;99.90;;;;;;5088755;28;20184;-39
2021/09/16 04:25:38;;;;;;;3.70;2.20;;;15.70;99.90;;;;;;5080126;28;20288;-38
2021/09/16 04:28:04;;;;;;;4.07;2.10;;;15.70;99.90;;;;;;5089059;28;20191;-41
2021/09/16 04:30:29;;;;;;;4.40;2.20;;;15.60;99.90;;;;;;5088161;28;20208;-38
2021/09/16 04:32:55;;;;;;;5.27;2.40;;;15.70;99.90;;;;;;5081967;28;20196;-41
2021/09/16 04:35:22;;;;;;;3.97;2.07;;;15.70;99.90;;;;;;5088931;28;20295;-39
2021/09/16 04:37:47;;;;;;;4.97;3.03;;;15.60;99.90;;;;;;5087726;28;20290;-38
2021/09/16 04:40:13;;;;;;;4.50;2.70;;;15.60;99.90;;;;;;5081308;28;20628;-40
2021/09/16 04:42:40;;;;;;;3.20;2.23;;;15.50;99.90;;;;;;5085559;28;20650;-41
2021/09/16 04:45:06;;;;;;;5.33;2.90;;;15.60;99.90;;;;;;5088270;28;20192;-39
2021/09/16 04:47:32;;;;;;;4.10;2.90;;;15.50;99.90;;;;;;5088513;28;20418;-40
2021/09/16 04:49:58;;;;;;;4.00;2.70;;;15.50;99.90;;;;;;5087244;28;20458;-39
2021/09/16 04:52:25;;;;;;;4.20;2.90;;;15.50;99.90;;;;;;5088491;28;20220;-39
2021/09/16 04:54:51;;;;;;;4.90;3.60;;;15.50;99.90;;;;;;5083139;28;20817;-38
2021/09/16 04:57:17;;;;;;;4.20;3.50;;;15.50;99.90;;;;;;5075070;28;20782;-39
2021/09/16 04:59:43;;;;;;;7.07;3.87;;;15.40;99.90;;;;;;5078877;28;20437;-38
2021/09/16 05:02:09;;;;;;;5.80;4.03;;;15.50;99.90;;;;;;5084461;28;20438;-38
2021/09/16 05:04:34;;;;;;;6.57;3.87;;;15.50;99.90;;;;;;5083909;28;20184;-38
2021/09/16 05:07:00;;;;;;;6.87;4.47;;;15.50;99.90;;;;;;5079935;28;20677;-38
2021/09/16 05:09:26;;;;;;;8.67;4.40;;;15.50;99.90;;;;;;5086518;28;20956;-39
2021/09/16 05:11:52;;;;;;;10.37;4.37;;;15.40;99.90;;;;;;5074819;28;20529;-38
2021/09/16 05:14:17;;;;;;;8.83;5.10;;;15.40;99.90;;;;;;5078279;28;20199;-42
2021/09/16 05:16:43;;;;;;;7.53;5.07;;;15.40;99.90;;;;;;5087664;28;20627;-38
2021/09/16 05:19:09;;;;;;;7.13;4.60;;;15.30;99.90;;;;;;5087160;28;20192;-40
2021/09/16 05:21:34;;;;;;;7.10;5.00;;;15.30;99.90;;;;;;5087232;28;20277;-42
2021/09/16 05:24:00;;;;;;;7.33;5.07;;;15.30;99.90;;;;;;5087965;28;20273;-40
2021/09/16 05:26:25;;;;;;;5.73;5.17;;;15.30;99.90;;;;;;5073571;28;20204;-38
2021/09/16 05:28:51;;;;;;;6.00;5.40;;;15.30;99.90;;;;;;5077747;28;20674;-38
2021/09/16 05:31:17;;;;;;;7.20;6.30;;;15.20;99.90;;;;;;5082188;28;20710;-38
2021/09/16 05:33:42;;;;;;;8.00;5.47;;;15.20;99.90;;;;;;5081206;28;20181;-40
2021/09/16 05:36:08;;;;;;;7.90;4.87;;;15.20;99.90;;;;;;5087156;28;20245;-38
2021/09/16 05:38:34;;;;;;;8.13;6.30;;;15.30;99.90;;;;;;5087386;28;20642;-40
2021/09/16 05:41:00;;;;;;;9.03;5.33;;;15.30;99.90;;;;;;5078213;28;20189;-38
2021/09/16 05:43:25;;;;;;;7.30;5.77;;;15.30;99.90;;;;;;5083050;28;20187;-39
2021/09/16 05:45:51;;;;;;;10.53;5.73;;;15.30;99.90;;;;;;5087442;28;20222;-38
2021/09/16 05:48:20;;;;;;;9.83;5.70;;;15.30;99.90;;;;;;5086271;28;20176;-38
2021/09/16 05:50:46;;;;;;;5.80;5.20;;;15.30;99.90;;;;;;5086434;28;20517;-39
2021/09/16 05:53:12;;;;;;;7.87;5.60;;;15.30;99.90;;;;;;5086758;28;20429;-40
2021/09/16 05:55:39;;;;;;;6.53;5.07;;;15.40;99.90;;;;;;5080026;28;20431;-39
2021/09/16 05:58:06;;;;;;;6.03;4.80;;;15.30;99.90;;;;;;5084118;28;20718;-38
2021/09/16 06:00:32;;;;;;;8.70;5.73;;;15.40;99.90;;;;;;5086362;28;20506;-39
2021/09/16 06:02:58;;;;;;;6.00;5.00;;;15.40;99.90;;;;;;5082465;28;20429;-38
2021/09/16 06:05:23;;;;;;;9.43;6.00;;;15.40;99.90;;;;;;5074583;28;20181;-44
2021/09/16 06:07:49;;;;;;;6.30;5.17;;;15.30;99.90;;;;;;5083985;28;20187;-39
2021/09/16 06:10:15;;;;;;;6.53;5.50;;;15.40;99.90;;;;;;5082173;28;20211;-41
2021/09/16 06:12:41;;;;;;;6.93;5.10;;;15.40;99.90;;;;;;5078441;28;20180;-42
2021/09/16 06:15:08;;;;;;;8.13;5.83;;;15.30;99.90;;;;;;5080446;28;20241;-39
2021/09/16 06:17:34;;;;;;;5.80;4.50;;;15.30;99.90;;;;;;5086626;28;20173;-41
2021/09/16 06:20:00;;;;;;;8.30;5.40;;;15.40;99.90;;;;;;5085736;28;20423;-38
2021/09/16 06:22:26;;;;;;;6.80;5.07;;;15.50;99.90;;;;;;5086034;28;20430;-38
2021/09/16 06:24:53;;;;;;;8.20;4.90;;;15.50;99.90;;;;;;5085985;28;20426;-39
2021/09/16 06:27:19;;;;;;;6.40;4.77;;;15.40;99.90;;;;;;5073560;28;20196;-37
2021/09/16 06:29:44;;;;;;;8.03;5.40;;;15.50;99.90;;;;;;5084220;28;20716;-37
2021/09/16 06:32:10;;;;;;;7.27;4.70;;;15.50;99.90;;;;;;5086456;28;20441;-39
2021/09/16 06:34:36;;;;;;;5.37;4.87;;;15.60;99.90;;;;;;5085868;28;20193;-40
2021/09/16 06:37:02;;;;;;;7.03;4.50;;;15.60;99.90;;;;;;5086381;28;20187;-38
2021/09/16 06:39:27;;;;;;;8.80;5.20;;;15.60;99.90;;;;;;5085508;28;20199;-39
2021/09/16 06:41:53;;;;;;;7.43;4.57;;;15.60;99.90;;;;;;5076372;28;20439;-39
2021/09/16 06:44:19;;;;;;;4.93;4.43;;;15.60;99.90;;;;;;5086164;28;20180;-38
2021/09/16 06:46:44;;;;;;;5.80;4.10;;;15.60;99.90;;;;;;5086432;28;20219;-38
2021/09/16 06:49:10;;;;;;;8.30;4.30;;;15.70;99.90;;;;;;5085142;28;20286;-39
2021/09/16 06:51:36;;;;;;;12.97;4.90;;;15.60;99.90;;;;;;5084941;28;20181;-39
2021/09/16 06:54:01;;;;;;;8.47;4.23;;;15.70;99.90;;;;;;5086223;28;20245;-41
2021/09/16 06:56:27;;;;;;;5.93;4.10;;;15.80;99.90;;;;;;5077360;28;20220;-38
2021/09/16 06:58:53;;;;;;;7.20;4.80;;;15.80;99.90;;;;;;5084317;28;20180;-38
2021/09/16 07:01:19;;;;;;;5.70;4.93;;;15.70;99.90;;;;;;5084560;28;20476;-39
2021/09/16 07:03:46;;;;;;;6.77;5.13;;;15.70;99.90;;;;;;5085588;28;20496;-38
2021/09/16 07:06:13;;;;;;;7.03;5.03;;;15.80;99.90;;;;;;5085987;28;20222;-38
2021/09/16 07:08:38;;;;;;;6.83;5.03;;;15.80;99.90;;;;;;5084892;28;20438;-39
2021/09/16 07:11:05;;;;;;;6.67;5.10;;;15.80;99.90;;;;;;5080213;28;20607;-39
2021/09/16 07:13:31;;;;;;;6.97;4.90;;;15.70;99.90;;;;;;5082115;28;20983;-38
2021/09/16 07:15:56;;;;;;;5.90;4.97;;;15.70;99.90;;;;;;5085114;28;20189;-39
2021/09/16 07:18:22;;;;;;;6.83;5.47;;;15.80;99.90;;;;;;5085554;28;20187;-40
2021/09/16 07:20:48;;;;;;;5.63;4.80;;;15.80;99.90;;;;;;5084530;28;20213;-38
2021/09/16 07:23:13;;;;;;;6.37;4.97;;;15.80;99.90;;;;;;5085726;28;20253;-39
2021/09/16 07:25:39;;;;;;;8.93;5.50;;;15.80;99.90;;;;;;5083597;28;20196;-41
2021/09/16 07:28:05;;;;;;;6.03;5.27;;;15.80;99.90;;;;;;5077881;28;20192;-41
2021/09/16 07:30:30;;;;;;;6.90;5.60;;;15.80;99.90;;;;;;5084833;28;20219;-40
2021/09/16 07:32:56;;;;;;;6.43;5.83;;;15.80;99.90;;;;;;5085471;28;20204;-38
2021/09/16 07:35:22;;;;;;;7.00;6.10;;;15.80;99.90;;;;;;5084444;28;20335;-40
2021/09/16 07:37:48;;;;;;;7.67;6.90;;;15.80;99.90;;;;;;5085220;28;20441;-40
2021/09/16 07:40:14;;;;;;;7.87;7.07;;;15.90;99.90;;;;;;5085189;28;20230;-39
2021/09/16 07:42:40;;;;;;;8.90;7.30;;;15.80;99.90;;;;;;5072078;28;20462;-39
2021/09/16 07:45:06;;;;;;;9.00;7.20;;;15.80;99.90;;;;;;5085343;28;20465;-40
2021/09/16 07:47:32;;;;;;;7.63;6.90;;;15.80;99.90;;;;;;5085094;28;20200;-38
2021/09/16 07:49:57;;;;;;;7.20;6.50;;;15.80;99.90;;;;;;5085037;28;20535;-39
2021/09/16 07:52:23;;;;;;;8.00;7.17;;;15.80;99.90;;;;;;5085390;28;20188;-39
2021/09/16 07:54:49;;;;;;;8.43;6.90;;;15.80;99.90;;;;;;5085905;28;20279;-39
2021/09/16 07:57:14;;;;;;;7.67;6.37;;;15.90;99.90;;;;;;5074276;28;20212;-42
2021/09/16 07:59:40;;;;;;;11.00;7.47;;;15.90;99.90;;;;;;5081937;28;20299;-38
2021/09/16 08:02:06;;;;;;;9.87;7.70;;;15.90;99.90;;;;;;5085292;28;20192;-38
2021/09/16 08:04:31;;;;;;;9.63;7.40;;;15.80;99.90;;;;;;5085353;28;20204;-40
2021/09/16 08:06:57;;;;;;;8.33;7.43;;;15.90;99.90;;;;;;5085271;28;20635;-39
2021/09/16 08:09:24;;;;;;;8.43;7.63;;;15.90;99.90;;;;;;5083836;28;20694;-40
2021/09/16 08:11:49;;;;;;;8.97;7.17;;;15.80;99.90;;;;;;5080968;28;20659;-38
2021/09/16 08:14:15;;;;;;;9.50;8.13;;;15.90;99.90;;;;;;5082923;28;20592;-41
2021/09/16 08:16:41;;;;;;;9.77;8.80;;;15.90;99.90;;;;;;5088971;28;20188;-41
2021/09/16 08:19:08;;;;;;;10.70;7.97;;;15.90;99.90;;;;;;5088244;28;20222;-38
2021/09/16 08:21:34;;;;;;;10.00;8.13;;;15.90;99.90;;;;;;5089088;28;20787;-38
2021/09/16 08:24:01;;;;;;;9.13;7.90;;;16.00;99.90;;;;;;5088903;28;20475;-42
2021/09/16 08:26:27;;;;;;;9.43;7.93;;;15.90;99.90;;;;;;5086266;28;20442;-39
2021/09/16 08:28:53;;;;;;;9.50;8.50;;;16.00;99.90;;;;;;5085634;28;20591;-39
2021/09/16 08:31:19;;;;;;;7.57;6.77;;;16.00;99.90;;;;;;5088574;28;20181;-41
2021/09/16 08:33:46;;;;;;;9.03;7.50;;;16.00;99.90;;;;;;5088569;28;20487;-41
2021/09/16 08:36:12;;;;;;;8.23;7.40;;;16.00;99.90;;;;;;5088547;28;20422;-39
2021/09/16 08:38:38;;;;;;;9.60;7.17;;;16.00;99.90;;;;;;5089008;28;20433;-38
2021/09/16 08:41:05;;;;;;;9.87;7.63;;;16.00;99.90;;;;;;5087737;28;20442;-39
2021/09/16 08:43:32;;;;;;;9.17;7.70;;;16.10;99.90;;;;;;5077610;28;20700;-39
2021/09/16 08:45:59;;;;;;;9.60;7.67;;;16.00;99.90;;;;;;5088001;28;20426;-39
2021/09/16 08:48:25;;;;;;;9.67;7.90;;;16.00;99.90;;;;;;5087221;28;20433;-39
2021/09/16 08:50:52;;;;;;;8.47;6.97;;;16.00;99.90;;;;;;5087514;28;20842;-40
2021/09/16 08:53:27;;;;;;;8.50;7.50;;;16.10;99.90;;;;;;5088907;28;20761;-40
2021/09/16 08:55:53;;;;;;;10.90;8.67;;;16.10;99.90;;;;;;5088746;28;20418;-40
2021/09/16 08:58:22;;;;;;;10.03;9.10;;;16.10;99.90;;;;;;5078005;28;20715;-39
2021/09/16 09:00:48;;;;;;;9.40;8.50;;;16.20;99.90;;;;;;5087355;28;20445;-42
2021/09/16 09:03:14;;;;;;;8.40;7.60;;;16.30;99.90;;;;;;5056711;28;20427;-38
2021/09/16 09:05:43;;;;;;;8.67;7.87;;;16.30;99.90;;;;;;5088241;28;20415;-39
2021/09/16 09:08:10;;;;;;;11.50;8.40;;;16.30;99.90;;;;;;5087018;28;20229;-41
2021/09/16 09:10:49;;;;;;;9.03;8.13;;;16.30;99.90;;;;;;5086974;28;20458;-42
2021/09/16 09:13:18;;;;;;;8.83;7.93;;;16.40;99.90;;;;;;5077158;28;20434;-39
2021/09/16 09:15:45;;;;;;;8.10;7.33;;;16.40;99.90;;;;;;5069646;28;21007;-40
2021/09/16 09:18:19;;;;;;;8.77;7.30;;;16.40;99.90;;;;;;5087772;28;20787;-45
2021/09/16 09:21:06;;;;;;;9.03;7.50;;;16.40;99.90;;;;;;5086693;28;20486;-38
2021/09/16 09:23:35;;;;;;;10.20;8.17;;;16.50;99.90;;;;;;5076941;28;20454;-40
2021/09/16 09:26:25;;;;;;;8.80;7.90;;;16.50;99.90;;;;;;5087544;28;21296;-41
2021/09/16 09:28:56;;;;;;;8.80;7.93;;;16.50;99.90;;;;;;5080312;28;20434;-43
2021/09/16 09:31:25;;;;;;;9.90;8.90;;;16.60;99.90;;;;;;5082063;28;20470;-39
2021/09/16 09:33:51;;;;;;;11.23;8.60;;;16.60;99.90;;;;;;5087787;28;20505;-40
2021/09/16 09:36:21;;;;;;;9.53;8.17;;;16.70;99.90;;;;;;5087457;28;20790;-40
2021/09/16 09:39:04;;;;;;;8.67;7.77;;;16.70;99.90;;;;;;5087178;28;20928;-41
2021/09/16 09:41:36;;;;;;;8.50;7.70;;;16.90;99.90;;;;;;5087300;28;20429;-38
2021/09/16 09:44:13;;;;;;;11.93;9.07;;;16.90;99.90;;;;;;5073926;28;20479;-41
2021/09/16 09:46:51;;;;;;;10.10;8.07;;;17.00;99.90;;;;;;5087095;28;20645;-39
2021/09/16 09:49:25;;;;;;;11.67;8.37;;;17.00;99.90;;;;;;5074618;28;20489;-39
2021/09/16 09:51:56;;;;;;;14.33;9.77;;;17.10;99.90;;;;;;5087145;28;20495;-40
2021/09/16 09:54:33;;;;;;;9.43;8.50;;;17.10;99.90;;;;;;5087135;28;20426;-40
2021/09/16 09:57:04;;;;;;;11.17;10.10;;;17.20;99.90;;;;;;5083658;28;20937;-42
2021/09/16 09:59:55;;;;;;;11.77;10.33;;;17.20;99.90;;;;;;5082549;28;20419;-41
2021/09/16 10:02:24;;;;;;;16.17;11.53;;;17.20;99.90;;;;;;5080743;28;20458;-41
2021/09/16 10:04:50;;;;;;;9.80;8.90;;;17.30;99.90;;;;;;5086750;28;20777;-41
2021/09/16 10:07:34;;;;;;;9.80;8.80;;;17.30;99.90;;;;;;5086231;28;20479;-39
2021/09/16 10:10:03;;;;;;;11.97;9.30;;;17.30;99.90;;;;;;5085961;28;20513;-40
2021/09/16 10:12:29;;;;;;;8.80;7.60;;;17.30;99.90;;;;;;5081274;28;20449;-40
2021/09/16 10:14:55;;;;;;;8.40;7.60;;;17.40;99.90;;;;;;5078106;28;20427;-40
2021/09/16 10:17:21;;;;;;;8.77;7.53;;;17.40;99.90;;;;;;5086586;28;20185;-41
2021/09/16 10:19:47;;;;;;;10.03;8.73;;;17.40;99.90;;;;;;5085831;28;20782;-39
2021/09/16 10:22:13;;;;;;;11.57;9.20;;;17.50;99.90;;;;;;5086834;28;20782;-41
2021/09/16 10:24:39;;;;;;;9.70;7.70;;;17.50;99.90;;;;;;5086387;28;20191;-40
2021/09/16 10:27:25;;;;;;;7.93;7.03;;;17.60;99.90;;;;;;5083900;28;20442;-39
2021/09/16 10:29:51;;;;;;;7.80;7.00;;;17.70;99.90;;;;;;5080106;28;20514;-46
2021/09/16 10:32:20;;;;;;;8.47;7.67;;;17.70;99.90;;;;;;5086834;28;20427;-42
2021/09/16 10:34:48;;;;;;;7.80;7.10;;;17.80;99.90;;;;;;5085885;28;20188;-42
2021/09/16 10:37:19;;;;;;;8.27;7.57;;;17.80;99.90;;;;;;5086658;28;20483;-40
2021/09/16 10:39:46;;;;;;;9.50;8.30;;;17.80;99.90;;;;;;5085730;28;20427;-40
2021/09/16 10:42:13;;;;;;;8.80;7.93;;;17.90;99.90;;;;;;5085086;28;20517;-38
2021/09/16 10:44:39;;;;;;;7.90;7.17;;;17.90;99.90;;;;;;5077282;28;20431;-39
2021/09/16 10:47:17;;;;;;;7.63;6.23;;;18.10;99.90;;;;;;5086385;28;20912;-44
2021/09/16 10:49:43;;;;;;;9.80;6.57;;;18.10;99.90;;;;;;5085417;28;21007;-40
2021/09/16 10:52:09;;;;;;;7.23;5.40;;;18.20;99.90;;;;;;5086063;28;20418;-41
2021/09/16 10:54:45;;;;;;;7.70;6.47;;;18.20;99.90;;;;;;5085970;28;20774;-40
2021/09/16 10:57:28;;;;;;;7.20;6.20;;;18.20;99.90;;;;;;5085606;28;20199;-42
2021/09/16 10:59:54;;;;;;;6.77;6.17;;;18.20;99.90;;;;;;5076925;28;20509;-41
2021/09/16 11:02:20;;;;;;;6.57;5.97;;;18.20;99.90;;;;;;5086378;28;20501;-39
2021/09/16 11:04:58;;;;;;;6.60;6.00;;;18.30;99.90;;;;;;5085951;28;20196;-40
2021/09/16 11:07:30;;;;;;;6.97;6.37;;;18.30;99.90;;;;;;5084233;28;20460;-42
2021/09/16 11:09:56;;;;;;;5.80;5.30;;;18.40;99.90;;;;;;5085101;28;20469;-40
2021/09/16 11:12:30;;;;;;;5.87;4.87;;;18.40;99.90;;;;;;5084417;28;20434;-42
2021/09/16 11:14:57;;;;;;;9.40;6.00;;;18.40;99.90;;;;;;5081989;28;20426;-43
2021/09/16 11:17:26;;;;;;;6.77;5.70;;;18.40;99.90;;;;;;5082435;28;20418;-40
2021/09/16 11:19:52;;;;;;;7.23;6.10;;;18.40;99.90;;;;;;5085413;28;20923;-39
2021/09/16 11:22:24;;;;;;;7.60;4.93;;;18.50;99.90;;;;;;5085859;28;20425;-40
2021/09/16 11:24:53;;;;;;;4.43;4.00;;;18.50;99.90;;;;;;5085967;28;20196;-39
2021/09/16 11:27:29;;;;;;;6.30;5.50;;;18.50;99.90;;;;;;5085640;28;20707;-39
2021/09/16 11:29:57;;;;;;;8.40;5.83;;;18.50;99.90;;;;;;5074695;28;20504;-40
2021/09/16 11:32:31;;;;;;;5.50;5.00;;;18.50;99.90;;;;;;5085627;28;20429;-40
2021/09/16 11:34:59;;;;;;;4.93;4.37;;;18.50;99.90;;;;;;5085730;28;20427;-39
2021/09/16 11:37:31;;;;;;;8.20;4.10;;;18.50;99.90;;;;;;5085480;28;20426;-39
2021/09/16 11:39:59;;;;;;;4.97;4.53;;;18.50;99.90;;;;;;5085066;28;20501;-42
2021/09/16 11:42:25;;;;;;;5.97;5.47;;;18.60;99.90;;;;;;5085640;28;20517;-40
2021/09/16 11:45:11;;;;;;;6.10;5.70;;;18.60;99.90;;;;;;5074052;28;20444;-40
2021/09/16 11:47:49;;;;;;;6.50;5.23;;;18.60;99.90;;;;;;5088869;28;20422;-39
2021/09/16 11:50:31;;;;;;;5.70;5.07;;;18.60;99.90;;;;;;5088863;28;20824;-40
2021/09/16 11:53:00;;;;;;;5.73;5.27;;;18.60;99.90;;;;;;5089233;28;20415;-45
2021/09/16 11:55:28;;;;;;;5.97;5.43;;;18.60;99.90;;;;;;5089268;28;20443;-45
2021/09/16 11:58:01;;;;;;;5.50;5.07;;;18.60;99.90;;;;;;5086770;28;20428;-43
2021/09/16 12:00:29;;;;;;;4.73;4.30;;;18.70;99.90;;;;;;5079833;28;20587;-39
2021/09/16 12:02:55;;;;;;;5.47;4.97;;;18.70;99.90;;;;;;5089074;28;20572;-42
2021/09/16 12:05:41;;;;;;;6.00;4.67;;;18.70;99.90;;;;;;5089278;28;20590;-45
2021/09/16 12:08:10;;;;;;;4.73;4.33;;;18.70;99.90;;;;;;5087442;28;20537;-40
2021/09/16 12:10:38;;;;;;;3.93;3.50;;;18.70;99.90;;;;;;5088635;28;20473;-39
2021/09/16 12:13:05;;;;;;;4.07;3.77;;;18.80;99.90;;;;;;5087041;28;20434;-38
2021/09/16 12:15:31;;;;;;;6.60;3.30;;;18.80;99.90;;;;;;5083974;28;20418;-40
2021/09/16 12:17:58;;;;;;;7.10;3.37;;;18.80;99.90;;;;;;5088797;28;20486;-39
2021/09/16 12:20:23;;;;;;;3.77;2.83;;;18.90;99.90;;;;;;5088156;28;20509;-41
2021/09/16 12:22:49;;;;;;;4.60;3.40;;;19.00;99.90;;;;;;5088641;28;20510;-40
2021/09/16 12:25:15;;;;;;;3.20;2.90;;;19.00;99.90;;;;;;5088819;28;20184;-42
2021/09/16 12:27:41;;;;;;;3.30;3.00;;;18.90;99.90;;;;;;5088869;28;20429;-41
2021/09/16 12:30:20;;;;;;;3.60;2.87;;;18.90;99.90;;;;;;5076780;28;20585;-43
2021/09/16 12:32:46;;;;;;;3.67;3.37;;;18.90;99.90;;;;;;5080422;28;20267;-40
2021/09/16 12:35:17;;;;;;;3.43;3.13;;;18.80;99.90;;;;;;5088514;28;20907;-43
2021/09/16 12:37:43;;;;;;;2.80;2.60;;;18.80;99.90;;;;;;5088986;28;20283;-41
2021/09/16 12:40:27;;;;;;;5.40;3.77;;;18.90;99.90;;;;;;5087843;28;20547;-44
2021/09/16 12:43:06;;;;;;;4.87;4.50;;;18.90;99.90;;;;;;5088751;28;20611;-41
2021/09/16 12:45:32;;;;;;;4.37;4.07;;;18.90;99.90;;;;;;5076212;28;20495;-39